createdAt,value
2018-07-21T00:02:21.903Z,86.40
2018-07-21T00:04:50.481Z,86.60
2018-07-21T00:07:19.014Z,86.80
2018-07-21T00:09:47.610Z,87.30
2018-07-21T00:12:16.165Z,87.20
2018-07-21T00:14:44.708Z,87.00
2018-07-21T00:17:13.323Z,87.40
2018-07-21T00:19:41.742Z,88.10
2018-07-21T00:22:10.197Z,88.60
2018-07-21T00:24:38.755Z,89.30
2018-07-21T00:27:07.232Z,89.90
2018-07-21T00:29:35.654Z,90.10
2018-07-21T00:32:04.186Z,90.30
2018-07-21T00:34:32.618Z,90.60
2018-07-21T00:37:01.055Z,90.70
2018-07-21T00:39:29.537Z,90.90
2018-07-21T00:41:58.005Z,91.10
2018-07-21T00:44:26.569Z,91.30
2018-07-21T00:46:55.047Z,91.50
2018-07-21T00:49:23.489Z,91.50
2018-07-21T00:51:51.921Z,91.90
2018-07-21T00:54:20.410Z,92.10
2018-07-21T00:56:48.873Z,92.60
2018-07-21T00:59:17.320Z,92.70
2018-07-21T01:01:45.773Z,92.80
2018-07-21T01:04:14.208Z,93.00
2018-07-21T01:06:42.652Z,92.80
2018-07-21T01:09:11.554Z,92.70
2018-07-21T01:11:40.225Z,92.90
2018-07-21T01:14:08.773Z,93.30
2018-07-21T01:16:37.326Z,93.40
2018-07-21T01:19:05.990Z,93.50
2018-07-21T01:21:34.431Z,93.40
2018-07-21T01:24:02.942Z,93.30
2018-07-21T01:26:31.401Z,93.30
2018-07-21T01:28:59.929Z,93.10
2018-07-21T01:31:28.463Z,93.20
2018-07-21T01:33:56.906Z,93.40
2018-07-21T01:36:25.349Z,93.70
2018-07-21T01:38:53.849Z,94.00
2018-07-21T01:41:22.273Z,94.50
2018-07-21T01:43:50.697Z,94.70
2018-07-21T01:46:19.169Z,95.00
2018-07-21T01:48:47.597Z,94.70
2018-07-21T01:51:16.021Z,94.30
2018-07-21T01:53:44.494Z,94.10
2018-07-21T01:56:12.965Z,94.10
2018-07-21T01:58:41.365Z,94.10
2018-07-21T02:01:09.877Z,94.10
2018-07-21T02:03:38.913Z,94.20
2018-07-21T02:06:07.377Z,94.10
2018-07-21T02:08:35.945Z,94.10
2018-07-21T02:11:04.504Z,94.20
2018-07-21T02:13:32.929Z,94.10
2018-07-21T02:16:01.375Z,93.90
2018-07-21T02:18:29.781Z,93.80
2018-07-21T02:20:58.220Z,93.80
2018-07-21T02:23:26.836Z,94.00
2018-07-21T02:25:55.280Z,94.10
2018-07-21T02:30:51.839Z,93.80
2018-07-21T02:33:20.257Z,93.80
2018-07-21T02:35:48.677Z,94.00
2018-07-21T02:38:17.210Z,94.20
2018-07-21T02:40:45.929Z,94.30
2018-07-21T02:43:14.549Z,94.30
2018-07-21T02:45:43.124Z,94.20
2018-07-21T02:48:11.637Z,94.20
2018-07-21T02:50:40.045Z,94.40
2018-07-21T02:53:08.513Z,94.40
2018-07-21T02:55:37.073Z,94.40
2018-07-21T02:58:05.589Z,94.30
2018-07-21T03:00:34.109Z,94.10
2018-07-21T03:03:02.701Z,94.20
2018-07-21T03:05:31.449Z,94.30
2018-07-21T03:07:59.959Z,94.20
2018-07-21T03:10:28.374Z,94.20
2018-07-21T03:12:56.828Z,94.20
2018-07-21T03:15:25.407Z,94.20
2018-07-21T03:17:53.829Z,94.10
2018-07-21T03:20:22.241Z,94.10
2018-07-21T03:22:50.723Z,94.20
2018-07-21T03:25:19.149Z,94.40
2018-07-21T03:27:47.556Z,94.40
2018-07-21T03:30:16.069Z,94.40
2018-07-21T03:32:44.535Z,94.40
2018-07-21T03:35:12.994Z,94.50
2018-07-21T03:37:41.436Z,94.40
2018-07-21T03:40:09.860Z,94.40
2018-07-21T03:42:38.289Z,94.40
2018-07-21T03:45:06.798Z,94.40
2018-07-21T03:47:35.317Z,94.50
2018-07-21T03:50:03.862Z,94.50
2018-07-21T03:52:32.341Z,94.30
2018-07-21T03:55:00.782Z,94.20
2018-07-21T03:57:29.193Z,94.10
2018-07-21T03:59:57.637Z,94.20
2018-07-21T04:02:26.096Z,94.20
2018-07-21T04:04:54.508Z,94.30
2018-07-21T04:07:23.070Z,94.40
2018-07-21T04:09:51.497Z,94.50
2018-07-21T04:12:19.928Z,94.40
2018-07-21T04:14:48.450Z,94.40
2018-07-21T04:17:22.137Z,94.60
2018-07-21T04:19:50.589Z,94.80
2018-07-21T04:22:19.141Z,95.00
2018-07-21T04:24:47.577Z,95.10
2018-07-21T04:29:44.392Z,94.90
2018-07-21T04:32:12.833Z,94.90
2018-07-21T04:34:41.572Z,94.70
2018-07-21T04:37:10.002Z,94.70
2018-07-21T04:39:38.581Z,94.50
2018-07-21T04:42:07.229Z,94.50
2018-07-21T04:44:35.652Z,94.40
2018-07-21T04:47:04.093Z,94.20
2018-07-21T04:49:32.580Z,93.90
2018-07-21T04:52:01.017Z,93.80
2018-07-21T04:54:29.461Z,93.60
2018-07-21T04:56:57.910Z,93.60
2018-07-21T04:59:26.333Z,93.40
2018-07-21T05:01:54.764Z,93.30
2018-07-21T05:04:23.265Z,93.10
2018-07-21T05:06:51.720Z,93.00
2018-07-21T05:09:20.161Z,93.00
2018-07-21T05:11:48.761Z,92.70
2018-07-21T05:14:17.221Z,92.50
2018-07-21T05:16:46.088Z,92.40
2018-07-21T05:19:14.592Z,92.30
2018-07-21T05:21:43.064Z,92.30
2018-07-21T05:24:11.521Z,92.30
2018-07-21T05:26:40.098Z,92.40
2018-07-21T05:29:08.538Z,92.40
2018-07-21T05:31:37.097Z,92.60
2018-07-21T05:34:05.590Z,92.70
2018-07-21T05:36:34.160Z,92.90
2018-07-21T05:39:02.727Z,92.90
2018-07-21T05:41:31.124Z,92.90
2018-07-21T05:43:59.545Z,93.10
2018-07-21T05:46:28.097Z,92.80
2018-07-21T05:48:56.593Z,92.80
2018-07-21T05:51:25.141Z,92.40
2018-07-21T05:53:53.580Z,92.00
2018-07-21T05:56:22.095Z,91.60
2018-07-21T05:58:50.508Z,90.90
2018-07-21T06:01:19.120Z,90.70
2018-07-21T06:03:47.608Z,90.00
2018-07-21T06:06:16.030Z,89.60
2018-07-21T06:08:44.502Z,88.70
2018-07-21T06:11:13.021Z,88.00
2018-07-21T06:13:41.469Z,86.10
2018-07-21T06:16:09.894Z,85.30
2018-07-21T06:18:38.532Z,84.00
2018-07-21T06:21:06.993Z,83.70
2018-07-21T06:23:35.428Z,82.80
2018-07-21T06:26:03.924Z,82.30
2018-07-21T06:28:33.437Z,78.90
2018-07-21T06:31:01.889Z,79.10
2018-07-21T06:33:30.357Z,78.00
2018-07-21T06:35:58.945Z,76.70
2018-07-21T06:41:27.773Z,76.70
2018-07-21T06:43:56.261Z,76.50
2018-07-21T06:46:24.693Z,76.10
2018-07-21T06:48:56.318Z,75.20
2018-07-21T06:51:24.970Z,75.30
2018-07-21T06:53:53.441Z,74.60
2018-07-21T06:56:21.910Z,74.30
2018-07-21T06:58:50.378Z,72.60
2018-07-21T07:01:18.953Z,72.30
2018-07-21T07:03:47.377Z,71.10
2018-07-21T07:06:15.984Z,70.20
2018-07-21T07:08:44.510Z,70.30
2018-07-21T07:11:13.109Z,70.10
2018-07-21T07:13:41.642Z,68.80
2018-07-21T07:16:10.151Z,68.30
2018-07-21T07:18:38.614Z,68.10
2018-07-21T07:21:07.461Z,67.60
2018-07-21T07:23:39.836Z,67.10
2018-07-21T07:28:36.793Z,64.20
2018-07-21T07:31:05.241Z,64.40
2018-07-21T07:33:33.734Z,64.30
2018-07-21T07:36:02.427Z,63.60
2018-07-21T07:38:31.045Z,63.10
2018-07-21T07:43:27.749Z,61.40
2018-07-21T07:45:56.577Z,62.10
2018-07-21T07:48:25.284Z,60.80
2018-07-21T07:50:53.726Z,60.70
2018-07-21T07:53:22.266Z,59.40
2018-07-21T07:55:50.776Z,57.80
2018-07-21T07:58:19.249Z,57.40
2018-07-21T08:00:47.911Z,56.80
2018-07-21T08:03:16.485Z,57.30
2018-07-21T08:05:44.910Z,57.80
2018-07-21T08:08:13.345Z,56.50
2018-07-21T08:10:41.852Z,57.50
2018-07-21T08:13:10.352Z,57.60
2018-07-21T08:15:38.964Z,57.30
2018-07-21T08:18:07.699Z,57.20
2018-07-21T08:20:36.295Z,57.00
2018-07-21T08:23:05.015Z,57.70
2018-07-21T08:25:33.542Z,57.40
2018-07-21T08:29:31.144Z,56.70
2018-07-21T08:31:59.834Z,56.90
2018-07-21T08:34:28.424Z,55.70
2018-07-21T08:36:56.921Z,55.70
2018-07-21T08:39:25.425Z,54.90
2018-07-21T08:41:53.912Z,55.00
2018-07-21T08:44:22.470Z,55.00
2018-07-21T08:46:50.991Z,54.50
2018-07-21T08:49:19.528Z,53.70
2018-07-21T08:51:48.108Z,53.90
2018-07-21T08:54:16.583Z,53.00
2018-07-21T08:56:45.324Z,52.50
2018-07-21T08:59:13.748Z,52.10
2018-07-21T09:01:42.379Z,52.10
2018-07-21T09:04:10.799Z,51.80
2018-07-21T09:06:39.246Z,52.00
2018-07-21T09:09:10.480Z,51.20
2018-07-21T09:11:39.201Z,51.80
2018-07-21T09:14:08.241Z,51.40
2018-07-21T09:16:36.828Z,51.60
2018-07-21T09:19:05.593Z,50.70
2018-07-21T09:21:34.191Z,49.50
2018-07-21T09:24:03.116Z,49.70
2018-07-21T09:26:31.575Z,49.50
2018-07-21T09:29:00.012Z,50.00
2018-07-21T09:31:28.581Z,50.80
2018-07-21T09:33:57.009Z,49.10
2018-07-21T09:36:25.464Z,48.80
2018-07-21T09:38:54.021Z,49.20
2018-07-21T09:41:22.605Z,49.20
2018-07-21T09:43:51.365Z,48.30
2018-07-21T09:46:19.914Z,47.90
2018-07-21T09:48:50.456Z,48.10
2018-07-21T09:51:19.038Z,47.80
2018-07-21T09:53:47.578Z,47.80
2018-07-21T09:56:16.160Z,47.40
2018-07-21T09:58:44.581Z,47.60
2018-07-21T10:01:13.083Z,47.10
2018-07-21T10:03:42.452Z,47.00
2018-07-21T10:06:14.872Z,45.90
2018-07-21T10:08:43.341Z,45.60
2018-07-21T10:11:11.773Z,46.40
2018-07-21T10:13:40.229Z,45.30
2018-07-21T10:16:08.817Z,45.20
2018-07-21T10:21:05.459Z,45.20
2018-07-21T10:23:33.905Z,45.40
2018-07-21T10:26:07.598Z,44.80
2018-07-21T10:28:41.469Z,45.20
2018-07-21T10:31:10.110Z,45.70
2018-07-21T10:33:41.352Z,44.60
2018-07-21T10:36:09.753Z,43.80
2018-07-21T10:38:38.253Z,44.30
2018-07-21T10:41:06.741Z,44.00
2018-07-21T10:43:35.176Z,43.90
2018-07-21T10:46:03.722Z,43.80
2018-07-21T10:48:33.798Z,43.30
2018-07-21T10:51:02.287Z,43.00
2018-07-21T10:53:32.756Z,42.70
2018-07-21T10:56:02.553Z,42.10
2018-07-21T10:58:32.839Z,42.40
2018-07-21T11:01:01.727Z,42.30
2018-07-21T11:03:30.221Z,42.60
2018-07-21T11:05:59.009Z,42.20
2018-07-21T11:08:27.597Z,42.20
2018-07-21T11:10:56.061Z,42.20
2018-07-21T11:13:24.509Z,42.20
2018-07-21T11:15:53.985Z,41.70
2018-07-21T11:18:22.429Z,41.30
2018-07-21T11:20:50.860Z,41.40
2018-07-21T11:23:19.342Z,40.80
2018-07-21T11:25:47.780Z,41.10
2018-07-21T11:28:16.330Z,41.50
2018-07-21T11:33:13.397Z,40.80
2018-07-21T11:35:42.139Z,40.30
2018-07-21T11:38:10.555Z,40.00
2018-07-21T11:43:33.653Z,39.90
2018-07-21T11:46:02.147Z,39.80
2018-07-21T11:48:30.597Z,39.80
2018-07-21T11:50:59.101Z,40.50
2018-07-21T11:53:27.697Z,40.40
2018-07-21T11:55:56.148Z,39.10
2018-07-21T11:58:24.660Z,39.70
2018-07-21T12:00:53.091Z,39.40
2018-07-21T12:03:21.523Z,39.60
2018-07-21T12:05:49.986Z,39.00
2018-07-21T12:10:46.664Z,39.30
2018-07-21T12:13:15.193Z,39.10
2018-07-21T12:15:43.608Z,39.40
2018-07-21T12:18:12.061Z,39.40
2018-07-21T12:20:40.773Z,38.40
2018-07-21T12:23:09.216Z,38.90
2018-07-21T12:25:37.765Z,37.40
2018-07-21T12:28:06.317Z,38.10
2018-07-21T12:30:34.817Z,38.30
2018-07-21T12:35:31.505Z,38.60
2018-07-21T12:37:59.954Z,38.90
2018-07-21T12:40:28.500Z,37.90
2018-07-21T12:42:57.030Z,37.60
2018-07-21T12:45:25.462Z,37.20
2018-07-21T12:47:54.121Z,38.10
2018-07-21T12:50:22.637Z,37.00
2018-07-21T12:52:51.113Z,36.80
2018-07-21T12:55:19.556Z,37.40
2018-07-21T12:57:48.181Z,35.70
2018-07-21T13:00:16.776Z,35.10
2018-07-21T13:02:45.273Z,34.90
2018-07-21T13:05:14.019Z,35.70
2018-07-21T13:07:42.433Z,36.20
2018-07-21T13:10:10.902Z,35.40
2018-07-21T13:12:39.445Z,35.70
2018-07-21T13:15:08.094Z,35.60
2018-07-21T13:17:36.748Z,34.70
2018-07-21T13:20:05.678Z,35.40
2018-07-21T13:22:34.213Z,35.30
2018-07-21T13:25:02.753Z,33.70
2018-07-21T13:27:31.299Z,32.80
2018-07-21T13:29:59.747Z,32.70
2018-07-21T13:32:28.296Z,32.50
2018-07-21T13:34:56.744Z,33.10
2018-07-21T13:37:25.497Z,32.60
2018-07-21T13:39:54.145Z,32.40
2018-07-21T13:42:22.696Z,32.90
2018-07-21T13:44:51.357Z,32.80
2018-07-21T13:49:48.104Z,31.60
2018-07-21T13:52:16.788Z,32.20
2018-07-21T13:54:45.326Z,31.40
2018-07-21T13:57:13.841Z,32.40
2018-07-21T13:59:42.423Z,31.80
2018-07-21T14:02:10.940Z,31.00
2018-07-21T14:04:39.432Z,32.60
2018-07-21T14:07:07.986Z,31.90
2018-07-21T14:09:36.462Z,31.40
2018-07-21T14:12:05.163Z,31.90
2018-07-21T14:14:33.661Z,31.90
2018-07-21T14:17:02.177Z,31.40
2018-07-21T14:19:30.777Z,31.30
2018-07-21T14:21:59.306Z,31.20
2018-07-21T14:24:27.753Z,32.20
2018-07-21T14:26:56.320Z,31.60
2018-07-21T14:29:24.776Z,30.90
2018-07-21T14:31:53.361Z,30.70
2018-07-21T14:34:21.981Z,30.50
2018-07-21T14:36:50.729Z,31.20
2018-07-21T14:39:19.209Z,31.40
2018-07-21T14:41:47.813Z,31.50
2018-07-21T14:44:16.301Z,30.30
2018-07-21T14:49:12.951Z,31.10
2018-07-21T14:51:41.665Z,31.70
2018-07-21T14:54:10.203Z,31.70
2018-07-21T14:56:38.845Z,30.70
2018-07-21T14:59:07.304Z,30.30
2018-07-21T15:01:35.820Z,30.50
2018-07-21T15:04:05.142Z,30.30
2018-07-21T15:06:33.617Z,30.00
2018-07-21T15:09:02.077Z,30.00
2018-07-21T15:11:30.533Z,29.90
2018-07-21T15:16:27.561Z,29.90
2018-07-21T15:18:56.117Z,29.90
2018-07-21T15:21:24.662Z,29.90
2018-07-21T15:26:21.493Z,30.00
2018-07-21T15:28:50.195Z,29.20
2018-07-21T15:31:19.110Z,29.30
2018-07-21T15:33:47.792Z,29.60
2018-07-21T15:36:16.345Z,30.00
2018-07-21T15:38:44.841Z,29.70
2018-07-21T15:41:13.440Z,29.60
2018-07-21T15:43:41.905Z,29.70
2018-07-21T15:46:10.377Z,29.70
2018-07-21T15:48:38.861Z,29.90
2018-07-21T15:51:07.529Z,29.80
2018-07-21T15:53:36.069Z,29.90
2018-07-21T15:58:32.789Z,29.70
2018-07-21T16:01:01.240Z,29.90
2018-07-21T16:03:29.760Z,29.80
2018-07-21T16:05:58.210Z,29.90
2018-07-21T16:08:26.660Z,29.10
2018-07-21T16:10:55.345Z,28.50
2018-07-21T16:15:57.168Z,28.40
2018-07-21T16:18:27.446Z,28.30
2018-07-21T16:21:00.179Z,28.40
2018-07-21T16:23:29.427Z,28.10
2018-07-21T16:25:58.416Z,28.00
2018-07-21T16:28:27.455Z,27.80
2018-07-21T16:30:56.733Z,27.60
2018-07-21T16:33:28.412Z,27.20
2018-07-21T16:35:58.692Z,27.50
2018-07-21T16:38:27.344Z,27.50
2018-07-21T16:40:55.854Z,27.30
2018-07-21T16:43:24.396Z,27.50
2018-07-21T16:45:52.942Z,27.60
2018-07-21T16:48:21.605Z,27.70
2018-07-21T16:50:50.598Z,27.40
2018-07-21T16:53:19.055Z,27.60
2018-07-21T16:55:49.101Z,27.50
2018-07-21T16:58:17.677Z,27.50
2018-07-21T17:00:46.117Z,27.30
2018-07-21T17:03:14.681Z,27.20
2018-07-21T17:05:43.112Z,27.50
2018-07-21T17:08:11.649Z,27.80
2018-07-21T17:10:40.147Z,27.80
2018-07-21T17:13:08.617Z,27.50
2018-07-21T17:15:37.164Z,27.50
2018-07-21T17:18:05.772Z,27.70
2018-07-21T17:20:34.457Z,28.00
2018-07-21T17:23:02.993Z,28.30
2018-07-21T17:25:31.465Z,28.50
2018-07-21T17:28:00.005Z,28.50
2018-07-21T17:30:28.689Z,28.90
2018-07-21T17:32:57.289Z,29.80
2018-07-21T17:35:26.697Z,31.00
2018-07-21T17:37:55.221Z,32.00
2018-07-21T17:41:53.133Z,33.40
2018-07-21T17:44:21.605Z,35.00
2018-07-21T17:46:50.065Z,36.60
2018-07-21T17:49:18.603Z,37.50
2018-07-21T17:51:47.074Z,37.60
2018-07-21T17:54:15.726Z,38.60
2018-07-21T17:56:44.156Z,38.80
2018-07-21T17:59:12.611Z,39.50
2018-07-21T18:01:41.165Z,39.60
2018-07-21T18:04:09.774Z,40.20
2018-07-21T18:06:38.345Z,40.40
2018-07-21T18:09:08.104Z,40.80
2018-07-21T18:11:36.693Z,41.00
2018-07-21T18:14:05.405Z,41.20
2018-07-21T18:16:33.986Z,41.60
2018-07-21T18:19:02.417Z,42.10
2018-07-21T18:21:30.953Z,42.10
2018-07-21T18:23:59.536Z,42.40
2018-07-21T18:26:27.958Z,42.20
2018-07-21T18:28:56.401Z,42.40
2018-07-21T18:31:24.894Z,42.60
2018-07-21T18:33:53.497Z,43.30
2018-07-21T18:36:21.966Z,43.20
2018-07-21T18:38:50.617Z,43.50
2018-07-21T18:41:19.121Z,43.90
2018-07-21T18:43:47.685Z,45.30
2018-07-21T18:46:16.202Z,47.30
2018-07-21T18:48:44.685Z,49.40
2018-07-21T18:53:41.457Z,50.50
2018-07-21T18:56:10.471Z,50.70
2018-07-21T18:58:39.031Z,51.10
2018-07-21T19:01:07.932Z,51.60
2018-07-21T19:03:36.478Z,52.10
2018-07-21T19:06:05.057Z,52.50
2018-07-21T19:08:38.929Z,53.50
2018-07-21T19:11:07.437Z,53.90
2018-07-21T19:13:35.929Z,54.30
2018-07-21T19:16:09.917Z,55.30
2018-07-21T19:18:38.364Z,55.20
2018-07-21T19:21:12.286Z,55.60
2018-07-21T19:23:41.361Z,56.00
2018-07-21T19:26:15.069Z,56.70
2018-07-21T19:28:43.793Z,57.00
2018-07-21T19:31:12.441Z,57.40
2018-07-21T19:33:40.921Z,57.70
2018-07-21T19:36:09.350Z,57.80
2018-07-21T19:38:38.276Z,58.40
2018-07-21T19:41:12.283Z,58.40
2018-07-21T19:43:41.300Z,58.70
2018-07-21T19:46:10.049Z,59.40
2018-07-21T19:50:07.709Z,60.20
2018-07-21T19:52:36.400Z,60.50
2018-07-21T19:55:04.917Z,59.90
2018-07-21T19:57:33.502Z,60.00
2018-07-21T20:00:01.946Z,60.20
2018-07-21T20:02:30.364Z,60.90
2018-07-21T20:04:58.818Z,61.50
2018-07-21T20:07:27.721Z,61.90
2018-07-21T20:09:56.306Z,62.10
2018-07-21T20:12:24.871Z,62.30
2018-07-21T20:14:53.350Z,62.80
2018-07-21T20:17:21.831Z,63.00
2018-07-21T20:22:18.561Z,64.00
2018-07-21T20:24:47.091Z,64.80
2018-07-21T20:27:15.692Z,64.80
2018-07-21T20:29:44.227Z,65.30
2018-07-21T20:32:12.711Z,65.60
2018-07-21T20:34:41.209Z,66.10
2018-07-21T20:37:09.776Z,66.10
2018-07-21T20:39:38.346Z,66.50
2018-07-21T20:42:08.116Z,66.60
2018-07-21T20:44:36.666Z,67.00
2018-07-21T20:47:05.141Z,67.50
2018-07-21T20:49:33.609Z,67.30
2018-07-21T20:52:02.064Z,67.20
2018-07-21T20:54:30.512Z,66.90
2018-07-21T20:56:59.068Z,66.90
2018-07-21T20:59:27.539Z,67.30
2018-07-21T21:01:56.020Z,67.00
2018-07-21T21:04:24.614Z,67.50
2018-07-21T21:06:53.111Z,67.50
2018-07-21T21:09:21.583Z,67.50
2018-07-21T21:11:51.023Z,67.80
2018-07-21T21:14:20.058Z,68.10
2018-07-21T21:16:48.661Z,68.70
2018-07-21T21:19:17.177Z,69.40
2018-07-21T21:21:45.804Z,69.50
2018-07-21T21:24:14.253Z,70.50
2018-07-21T21:26:42.877Z,70.20
2018-07-21T21:29:11.413Z,70.70
2018-07-21T21:31:39.990Z,70.80
2018-07-21T21:34:08.681Z,70.60
2018-07-21T21:36:37.220Z,71.70
2018-07-21T21:39:10.033Z,70.70
2018-07-21T21:41:38.715Z,70.60
2018-07-21T21:44:07.173Z,71.10
2018-07-21T21:46:35.710Z,71.60
2018-07-21T21:49:04.177Z,71.30
2018-07-21T21:51:32.686Z,71.40
2018-07-21T21:54:01.426Z,71.70
2018-07-21T21:56:29.984Z,71.90
2018-07-21T21:58:58.434Z,72.40
2018-07-21T22:01:27.093Z,72.40
2018-07-21T22:03:55.527Z,71.90
2018-07-21T22:06:24.080Z,72.10
2018-07-21T22:08:52.555Z,72.10
2018-07-21T22:11:21.189Z,72.80
2018-07-21T22:13:49.637Z,72.30
2018-07-21T22:16:18.158Z,72.70
2018-07-21T22:18:50.166Z,73.30
2018-07-21T22:21:19.086Z,72.80
2018-07-21T22:23:47.728Z,72.80
2018-07-21T22:26:16.284Z,73.10
2018-07-21T22:28:44.809Z,72.50
2018-07-21T22:31:13.281Z,72.30
2018-07-21T22:33:41.817Z,72.80
2018-07-21T22:36:10.302Z,73.10
2018-07-21T22:41:32.446Z,73.10
2018-07-21T22:44:01.107Z,72.80
2018-07-21T22:46:29.502Z,73.10
2018-07-21T22:48:57.973Z,73.00
2018-07-21T22:51:26.454Z,73.10
2018-07-21T22:53:54.934Z,74.00
2018-07-21T22:56:23.427Z,74.20
2018-07-21T22:58:51.892Z,74.00
2018-07-21T23:01:20.421Z,74.10
2018-07-21T23:03:48.950Z,74.20
2018-07-21T23:06:17.511Z,74.70
2018-07-21T23:08:45.941Z,74.40
2018-07-21T23:11:14.593Z,74.80
2018-07-21T23:13:43.317Z,75.00
2018-07-21T23:16:11.829Z,75.20
2018-07-21T23:18:40.301Z,75.30
2018-07-21T23:21:08.737Z,74.80
2018-07-21T23:23:37.172Z,75.20
2018-07-21T23:26:05.707Z,74.70
2018-07-21T23:28:34.155Z,74.40
2018-07-21T23:31:02.650Z,74.30
2018-07-21T23:33:31.159Z,75.10
2018-07-21T23:35:59.590Z,75.90
2018-07-21T23:38:28.077Z,76.50
2018-07-21T23:40:56.702Z,76.90
2018-07-21T23:43:25.141Z,77.30
2018-07-21T23:45:53.564Z,76.80
2018-07-21T23:48:22.034Z,75.00
2018-07-21T23:50:50.648Z,75.00
2018-07-21T23:53:19.145Z,76.60
2018-07-21T23:55:47.788Z,79.20
2018-07-21T23:58:16.279Z,80.20
